Time;durP1;ratioP1;P1;durP2;ratioP2;P2;SDS_P1;SDS_P2;PMS_P1;PMS_P2;Temp;Humidity;BMP_temperature;BMP_pressure;BME280_temperature;BME280_humidity;BME280_pressure;Samples;Min_cycle;Max_cycle;Signal;HPM_P1;HPM_P2
2021/03/04 00:00:15;;;;;;;36.33;24.60;;;;;;;7.07;50.77;100724.34;5035160;28;20029;-81
2021/03/04 00:02:41;;;;;;;37.73;24.90;;;;;;;6.97;51.01;100718.19;5017482;28;20033;-79
2021/03/04 00:05:08;;;;;;;38.13;25.00;;;;;;;6.18;50.47;100589.06;5034740;28;20149;-80
2021/03/04 00:07:35;;;;;;;36.10;23.70;;;;;;;6.98;50.96;100710.19;5034791;28;20428;-80
2021/03/04 00:10:00;;;;;;;37.03;23.80;;;;;;;7.08;50.45;100733.06;5035220;28;20029;-79
2021/03/04 00:12:26;;;;;;;37.70;23.83;;;;;;;7.09;50.84;100743.44;5044133;28;20076;-76
2021/03/04 00:14:51;;;;;;;39.67;23.80;;;;;;;7.06;50.85;100714.81;5021061;28;20424;-79
2021/03/04 00:17:17;;;;;;;35.60;23.65;;;;;;;7.08;51.10;100718.16;5034837;28;20017;-82
2021/03/04 00:19:42;;;;;;;38.38;24.80;;;;;;;6.91;50.67;100684.56;5035106;28;20060;-85
2021/03/04 00:22:08;;;;;;;35.87;25.33;;;;;;;7.15;50.58;100719.31;5034980;28;20458;-79
2021/03/04 00:24:33;;;;;;;38.30;24.30;;;;;;;6.93;50.56;100669.53;5034717;28;20029;-81
2021/03/04 00:26:58;;;;;;;39.75;25.25;;;;;;;6.58;51.05;100612.88;5034633;28;20052;-81
2021/03/04 00:29:24;;;;;;;37.65;24.95;;;;;;;7.11;50.74;100688.16;5034615;28;20037;-81
2021/03/04 00:31:50;;;;;;;37.13;23.50;;;;;;;6.97;50.67;100674.41;5034717;28;20025;-76
2021/03/04 00:34:15;;;;;;;38.30;24.60;;;;;;;6.98;51.27;100675.22;5034677;28;20029;-81
2021/03/04 00:36:40;;;;;;;41.35;25.20;;;;;;;7.09;50.96;100703.22;5034531;28;20100;-81
2021/03/04 00:39:07;;;;;;;42.22;24.50;;;;;;;6.62;50.95;100616.06;5016952;28;20030;-78
2021/03/04 00:41:34;;;;;;;41.33;26.73;;;;;;;7.06;51.09;100683.31;5017086;28;20030;-79
2021/03/04 00:44:00;;;;;;;46.67;30.50;;;;;;;7.03;50.95;100675.69;5017034;28;20033;-81
2021/03/04 00:46:25;;;;;;;47.63;31.30;;;;;;;6.89;50.99;100660.25;5034444;28;20029;-81
2021/03/04 00:48:51;;;;;;;45.83;29.77;;;;;;;6.68;50.95;100645.28;5017036;28;20112;-78
2021/03/04 00:51:16;;;;;;;42.43;27.43;;;;;;;6.14;51.14;100592.91;5017062;28;20170;-84
2021/03/04 00:53:41;;;;;;;41.10;26.20;;;;;;;6.70;51.19;100684.53;5034438;28;20376;-80
2021/03/04 00:56:07;;;;;;;36.53;23.48;;;;;;;6.69;51.08;100677.63;5016801;28;20072;-81
2021/03/04 00:58:32;;;;;;;38.90;23.63;;;;;;;6.67;51.11;100666.41;5034391;28;20128;-80
2021/03/04 01:00:58;;;;;;;39.70;24.03;;;;;;;6.37;51.43;100630.38;5034483;28;20037;-79
2021/03/04 01:03:23;;;;;;;40.03;24.10;;;;;;;6.07;51.63;100596.97;5034304;28;20030;-82
2021/03/04 01:05:48;;;;;;;38.03;24.35;;;;;;;6.46;51.67;100663.72;5034635;28;20025;-82
2021/03/04 01:08:14;;;;;;;34.77;21.20;;;;;;;6.40;51.34;100652.91;5034506;28;20064;-79
2021/03/04 01:10:41;;;;;;;31.70;19.90;;;;;;;6.19;51.78;100626.63;5034308;28;20029;-79
2021/03/04 01:13:07;;;;;;;28.30;17.73;;;;;;;6.12;52.14;100638.56;5034245;28;20390;-77
2021/03/04 01:15:33;;;;;;;32.63;18.63;;;;;;;6.12;52.03;100651.66;5035113;28;20108;-79
2021/03/04 01:17:59;;;;;;;28.23;17.50;;;;;;;6.12;51.77;100656.91;5022667;28;20036;-77
2021/03/04 01:20:25;;;;;;;26.33;16.97;;;;;;;5.46;51.84;100532.84;5044798;28;20110;-77
2021/03/04 01:22:50;;;;;;;26.80;17.57;;;;;;;6.05;51.99;100641.66;5038355;28;20475;-80
2021/03/04 01:25:17;;;;;;;30.87;18.33;;;;;;;5.66;52.02;100574.00;5038118;28;20352;-79
2021/03/04 01:27:43;;;;;;;26.47;16.97;;;;;;;6.04;52.05;100657.50;5037861;28;20096;-81
2021/03/04 01:30:11;;;;;;;24.43;16.37;;;;;;;6.03;51.99;100629.63;5037920;28;20091;-79
2021/03/04 01:32:37;;;;;;;27.37;17.43;;;;;;;5.90;51.93;100611.41;5020216;28;20104;-80
2021/03/04 01:35:04;;;;;;;26.47;17.03;;;;;;;5.88;52.28;100620.31;5037920;28;20423;-79
2021/03/04 01:37:31;;;;;;;27.80;17.83;;;;;;;5.82;52.27;100611.13;5020155;28;20083;-81
2021/03/04 01:39:56;;;;;;;27.07;17.17;;;;;;;5.76;52.72;100609.00;5037756;28;20044;-81
2021/03/04 01:42:22;;;;;;;31.57;18.57;;;;;;;5.66;52.69;100593.19;5037783;28;20025;-81
2021/03/04 01:44:47;;;;;;;34.00;20.47;;;;;;;5.67;52.74;100610.56;5038577;28;20025;-80
2021/03/04 01:47:13;;;;;;;35.70;19.27;;;;;;;5.67;52.73;100609.72;5038447;28;20025;-78
2021/03/04 01:49:40;;;;;;;29.50;17.50;;;;;;;5.19;53.06;100520.09;5038351;28;20067;-79
2021/03/04 01:52:06;;;;;;;31.93;19.37;;;;;;;5.66;53.32;100603.66;5046167;23;20114;-79
2021/03/04 01:54:32;;;;;;;30.83;17.03;;;;;;;5.72;52.93;100600.56;5021445;28;20025;-83
2021/03/04 01:56:58;;;;;;;27.13;18.17;;;;;;;5.64;52.89;100579.38;5038513;28;20075;-78
2021/03/04 01:59:24;;;;;;;29.37;17.00;;;;;;;5.29;52.96;100527.13;5038347;28;20025;-81
2021/03/04 02:01:50;;;;;;;30.33;19.03;;;;;;;5.79;52.78;100598.28;5039453;28;20086;-79
2021/03/04 02:04:17;;;;;;;28.33;17.80;;;;;;;5.43;53.03;100541.75;5038845;28;20065;-80
2021/03/04 02:07:01;;;;;;;27.50;17.30;;;;;;;5.61;53.39;100599.72;5021459;28;20079;-78
2021/03/04 02:09:27;;;;;;;33.20;18.57;;;;;;;5.68;52.98;100591.28;5038615;28;20037;-79
2021/03/04 02:12:09;;;;;;;28.83;16.43;;;;;;;5.50;53.09;100607.59;5039648;28;20021;-81
2021/03/04 02:14:46;;;;;;;30.60;18.02;;;;;;;5.63;52.97;100603.91;5041485;28;20021;-79
2021/03/04 02:17:13;;;;;;;29.07;17.00;;;;;;;5.56;52.69;100591.41;5049363;23;20057;-79
2021/03/04 02:19:49;;;;;;;30.53;17.60;;;;;;;5.60;53.35;100603.31;5040994;28;20374;-78
2021/03/04 02:22:40;;;;;;;46.90;23.70;;;;;;;5.45;53.32;100597.47;5041798;23;20017;-79
2021/03/04 02:25:27;;;;;;;28.63;17.23;;;;;;;5.33;53.46;100594.03;5027607;28;20026;-80
2021/03/04 02:27:55;;;;;;;27.23;16.77;;;;;;;5.09;53.73;100554.84;5040424;22;20352;-80
2021/03/04 02:30:26;;;;;;;32.83;18.57;;;;;;;5.35;53.71;100589.50;5044030;28;20056;-78
2021/03/04 02:32:57;;;;;;;28.83;16.38;;;;;;;4.66;53.91;100501.50;5044609;28;20408;-77
2021/03/04 02:35:33;;;;;;;33.70;19.00;;;;;;;5.25;53.92;100595.56;5066252;23;20045;-81
2021/03/04 02:38:13;;;;;;;34.93;18.17;;;;;;;5.06;54.04;100593.50;5044764;28;20034;-78
2021/03/04 02:40:45;;;;;;;30.40;16.63;;;;;;;4.58;53.97;100522.19;5041276;23;20050;-78
2021/03/04 02:43:17;;;;;;;28.55;15.90;;;;;;;4.85;54.65;100577.66;5040256;23;20041;-78
2021/03/04 02:45:42;;;;;;;;;;;;;;;4.87;54.92;100588.00;5051525;28;20036;-79
2021/03/04 02:50:51;;;;;;;29.34;19.86;;;;;;;4.69;54.39;100532.66;5090937;22;20422;-78
2021/03/04 02:53:17;;;;;;;29.07;16.90;;;;;;;4.80;54.38;100548.38;5071469;23;20076;-79
2021/03/04 02:56:07;;;;;;;26.83;16.30;;;;;;;5.09;54.85;100591.47;5030027;23;20053;-78
2021/03/04 02:58:35;;;;;;;28.43;16.37;;;;;;;5.19;54.07;100593.41;5054609;23;20382;-80
2021/03/04 03:01:05;;;;;;;28.30;16.10;;;;;;;5.17;54.19;100569.94;5055141;23;20064;-79
2021/03/04 03:03:33;;;;;;;28.27;17.60;;;;;;;5.32;54.22;100591.53;5048043;28;20030;-78
2021/03/04 03:06:08;;;;;;;28.87;18.07;;;;;;;5.04;53.92;100543.88;5061567;23;20053;-79
2021/03/04 03:08:40;;;;;;;27.73;18.40;;;;;;;5.04;53.89;100548.28;5061851;23;20451;-78
2021/03/04 03:11:06;;;;;;;31.67;17.70;;;;;;;5.23;54.02;100579.16;5050671;28;20056;-79
2021/03/04 03:13:32;;;;;;;34.07;19.23;;;;;;;5.08;54.21;100552.34;5057411;23;20058;-79
2021/03/04 03:15:59;;;;;;;33.70;20.10;;;;;;;5.43;53.76;100607.25;5147614;23;20040;-78
2021/03/04 03:18:26;;;;;;;40.80;22.43;;;;;;;5.50;53.87;100594.50;5063294;23;20049;-78
2021/03/04 03:20:51;;;;;;;40.33;23.70;;;;;;;5.47;53.73;100595.56;5047585;28;20079;-81
2021/03/04 03:23:22;;;;;;;37.33;22.20;;;;;;;5.45;54.13;100594.84;5051045;23;20053;-78
2021/03/04 03:25:54;;;;;;;37.22;22.10;;;;;;;5.47;53.91;100589.50;5069010;22;20045;-80
2021/03/04 03:28:21;;;;;;;41.57;24.10;;;;;;;5.48;54.04;100589.38;5057953;23;20077;-77
2021/03/04 03:30:48;;;;;;;34.70;21.40;;;;;;;5.48;53.91;100580.69;5048960;28;20064;-79
2021/03/04 03:33:18;;;;;;;45.07;23.37;;;;;;;5.19;54.12;100535.81;5047712;28;20105;-78
2021/03/04 03:35:44;;;;;;;32.73;19.33;;;;;;;5.47;53.83;100579.03;5057219;23;20056;-79
2021/03/04 03:38:39;;;;;;;32.97;18.73;;;;;;;5.46;53.66;100580.81;5053584;23;20048;-81
2021/03/04 03:41:08;;;;;;;34.93;21.03;;;;;;;5.09;53.49;100515.56;5050043;28;20029;-78
2021/03/04 03:44:04;;;;;;;66.47;34.27;;;;;;;5.38;53.75;100573.56;5050497;28;20041;-77
2021/03/04 03:46:55;;;;;;;39.27;22.27;;;;;;;5.02;53.65;100540.56;5054368;22;20061;-77
2021/03/04 03:49:23;;;;;;;33.73;20.47;;;;;;;5.02;53.70;100578.97;5035218;23;20053;-78
2021/03/04 03:52:00;;;;;;;29.77;16.17;;;;;;;5.07;53.65;100590.75;5067029;23;20101;-78
2021/03/04 03:57:03;;;;;;;24.20;15.73;;;;;;;5.05;53.76;100587.44;5050459;26;20337;-77
2021/03/04 03:59:35;;;;;;;24.93;16.23;;;;;;;4.97;53.65;100574.09;5048785;28;20041;-78
2021/03/04 04:02:00;;;;;;;29.17;17.00;;;;;;;4.67;53.33;100535.41;5028275;28;20029;-77
2021/03/04 04:04:31;;;;;;;25.57;16.43;;;;;;;4.76;53.55;100541.72;5046317;28;20402;-79
2021/03/04 04:06:56;;;;;;;28.87;16.40;;;;;;;4.69;52.94;100540.50;5039205;23;20061;-78
2021/03/04 04:09:23;;;;;;;26.47;16.00;;;;;;;4.72;53.32;100548.13;5060348;22;20049;-78
2021/03/04 04:11:51;;;;;;;26.83;16.80;;;;;;;4.77;53.08;100559.91;5069457;22;20123;-78
2021/03/04 04:16:52;;;;;;;20.80;14.33;;;;;;;4.70;53.26;100563.09;5052937;23;20056;-77
2021/03/04 04:19:22;;;;;;;24.23;16.10;;;;;;;4.43;53.47;100527.59;5061087;23;20486;-78
2021/03/04 04:21:47;;;;;;;30.13;17.93;;;;;;;4.63;53.47;100572.38;5046934;28;20392;-76
2021/03/04 04:24:13;;;;;;;27.37;17.27;;;;;;;3.82;53.76;100448.50;5047031;23;20042;-78
2021/03/04 04:31:55;;;;;;;24.43;16.30;;;;;;;4.29;54.09;100548.69;5041597;28;20057;-77
2021/03/04 04:34:33;;;;;;;31.23;18.93;;;;;;;4.34;54.10;100549.19;5047761;28;20034;-78
2021/03/04 04:36:58;;;;;;;29.13;18.50;;;;;;;4.36;54.21;100583.91;5060604;28;20087;-77
2021/03/04 04:39:23;;;;;;;28.00;17.83;;;;;;;4.08;53.68;100511.06;5040941;28;20464;-77
2021/03/04 04:41:49;;;;;;;25.07;17.00;;;;;;;4.07;53.95;100548.59;5042875;28;20036;-77
2021/03/04 04:46:49;;;;;;;24.67;16.63;;;;;;;4.09;54.48;100544.94;5047527;23;20041;-76
2021/03/04 04:49:19;;;;;;;22.23;16.47;;;;;;;4.20;54.04;100565.06;5072723;23;20041;-77
2021/03/04 04:51:44;;;;;;;27.33;17.73;;;;;;;4.14;53.99;100513.22;5052249;23;20387;-79
2021/03/04 04:56:35;;;;;;;39.40;25.60;;;;;;;4.37;53.87;100548.97;5061078;22;20100;-78
2021/03/04 04:59:06;;;;;;;68.57;41.90;;;;;;;3.98;53.76;100497.03;5034675;22;20046;-79
2021/03/04 05:01:33;;;;;;;47.17;30.88;;;;;;;3.98;53.70;100504.84;5009052;28;20026;-78
2021/03/04 05:03:59;;;;;;;53.93;31.90;;;;;;;4.16;54.30;100537.47;5049607;23;20052;-77
2021/03/04 05:06:24;;;;;;;49.17;32.43;;;;;;;4.08;54.09;100524.97;5047183;28;20041;-77
2021/03/04 05:08:50;;;;;;;49.87;32.63;;;;;;;4.10;53.96;100514.41;5041001;28;20395;-78
2021/03/04 05:11:16;;;;;;;45.17;28.80;;;;;;;4.17;53.91;100505.16;5038995;28;20043;-76
2021/03/04 05:13:41;;;;;;;53.40;33.53;;;;;;;4.20;54.26;100515.41;5043420;28;20428;-76
2021/03/04 05:16:07;;;;;;;56.83;32.27;;;;;;;4.18;53.89;100517.28;5042501;28;20033;-76
2021/03/04 05:18:32;;;;;;;44.40;28.37;;;;;;;4.09;54.48;100508.34;5039499;28;20033;-75
2021/03/04 05:20:58;;;;;;;40.00;23.80;;;;;;;4.33;54.10;100510.91;5039419;28;20029;-77
2021/03/04 05:23:23;;;;;;;46.17;27.10;;;;;;;4.13;53.68;100457.53;5038304;28;20083;-76
2021/03/04 05:25:48;;;;;;;49.73;29.73;;;;;;;4.57;53.65;100530.97;5040117;28;20022;-79
2021/03/04 05:28:15;;;;;;;48.63;29.33;;;;;;;4.61;53.68;100506.25;5039816;28;20029;-76
2021/03/04 05:30:40;;;;;;;73.67;44.70;;;;;;;4.72;53.32;100519.34;5037838;28;20022;-77
2021/03/04 05:33:06;;;;;;;64.33;38.97;;;;;;;4.55;53.44;100509.34;5039246;28;20045;-77
2021/03/04 05:35:32;;;;;;;61.93;40.70;;;;;;;4.01;53.53;100453.22;5037957;28;20029;-77
2021/03/04 05:37:57;;;;;;;56.20;34.87;;;;;;;4.27;53.65;100484.41;5038040;28;20029;-76
2021/03/04 05:40:25;;;;;;;47.60;29.77;;;;;;;4.51;53.85;100508.75;5041229;28;20103;-75
2021/03/04 05:42:50;;;;;;;47.83;27.50;;;;;;;4.61;53.58;100503.66;5039235;28;20049;-76
2021/03/04 05:47:43;;;;;;;56.66;33.88;;;;;;;4.82;53.31;100512.47;5050168;23;20144;-77
2021/03/04 05:50:13;;;;;;;61.93;36.23;;;;;;;4.24;53.30;100435.81;5045409;28;20041;-78
2021/03/04 05:52:49;;;;;;;71.33;42.87;;;;;;;4.10;53.59;100402.03;5052477;23;20068;-78
2021/03/04 05:55:20;;;;;;;75.07;43.37;;;;;;;4.05;53.85;100406.78;5047972;28;20052;-78
2021/03/04 05:57:50;;;;;;;83.07;45.63;;;;;;;4.72;53.84;100507.09;5052048;23;20053;-76
2021/03/04 06:00:16;;;;;;;72.10;41.60;;;;;;;2.86;53.98;100184.13;5068829;22;20376;-78
2021/03/04 06:02:43;;;;;;;69.83;42.47;;;;;;;4.94;53.55;100503.69;5059248;22;20049;-76
2021/03/04 06:05:13;;;;;;;68.90;42.40;;;;;;;4.88;53.71;100496.31;5041988;28;20475;-76
2021/03/04 06:07:48;;;;;;;65.03;40.40;;;;;;;5.03;54.12;100499.50;5041915;28;20048;-76
2021/03/04 06:10:14;;;;;;;67.87;36.63;;;;;;;4.79;54.12;100463.00;5039712;28;20022;-76
2021/03/04 06:12:40;;;;;;;63.80;34.27;;;;;;;4.96;54.23;100465.13;5046132;23;20133;-78
2021/03/04 06:15:09;;;;;;;64.50;35.37;;;;;;;5.27;54.53;100502.88;5040531;28;20159;-78
2021/03/04 06:17:35;;;;;;;72.00;39.70;;;;;;;5.39;54.41;100496.66;5042077;28;20021;-79
2021/03/04 06:20:04;;;;;;;93.57;45.40;;;;;;;5.52;54.55;100493.88;5037617;28;20404;-76
2021/03/04 06:22:34;;;;;;;80.27;46.40;;;;;;;5.63;54.52;100501.72;5037299;28;20379;-77
2021/03/04 06:25:10;;;;;;;82.43;46.10;;;;;;;5.75;54.57;100500.75;5037620;28;20080;-77
2021/03/04 06:27:40;;;;;;;75.27;44.53;;;;;;;5.87;54.54;100490.22;5052416;28;20017;-77
2021/03/04 06:30:11;;;;;;;74.60;42.90;;;;;;;5.98;54.55;100485.81;5036917;28;20030;-77
2021/03/04 06:32:38;;;;;;;78.73;48.07;;;;;;;5.80;54.54;100450.56;5036551;28;20112;-76
2021/03/04 06:35:11;;;;;;;74.60;46.40;;;;;;;6.20;54.63;100490.13;5036595;28;20386;-78
2021/03/04 06:37:42;;;;;;;88.10;51.63;;;;;;;5.64;54.64;100380.25;5035716;28;20056;-75
2021/03/04 06:40:24;;;;;;;80.20;50.63;;;;;;;5.74;54.57;100386.41;5035575;28;20351;-75
2021/03/04 06:42:51;;;;;;;81.22;51.10;;;;;;;6.37;54.68;100475.63;5035220;28;20021;-78
2021/03/04 06:45:34;;;;;;;80.10;51.30;;;;;;;6.53;54.85;100494.34;5038171;28;20104;-84
2021/03/04 06:48:11;;;;;;;73.80;47.97;;;;;;;6.59;54.58;100488.59;5037098;28;20429;-81
2021/03/04 06:50:42;;;;;;;73.63;45.57;;;;;;;6.64;54.69;100493.44;5035700;28;20021;-77
2021/03/04 06:53:20;;;;;;;69.00;41.10;;;;;;;6.71;55.07;100491.19;5030522;28;20343;-75
2021/03/04 06:56:05;;;;;;;65.40;38.47;;;;;;;6.61;55.31;100470.94;5028102;28;20391;-77
2021/03/04 06:58:31;;;;;;;63.40;37.60;;;;;;;6.83;55.35;100483.09;5015519;28;20034;-79
2021/03/04 07:01:13;;;;;;;60.20;34.27;;;;;;;6.91;56.22;100482.44;5033639;28;20343;-82
2021/03/04 07:03:49;;;;;;;63.50;35.55;;;;;;;6.97;55.79;100476.66;5036256;28;20033;-81
2021/03/04 07:06:20;;;;;;;55.97;34.60;;;;;;;6.79;55.51;100428.38;5035124;28;20471;-79
2021/03/04 07:08:48;;;;;;;50.87;32.10;;;;;;;6.87;55.30;100423.28;5036128;28;20032;-82
2021/03/04 07:11:15;;;;;;;53.13;33.20;;;;;;;7.21;55.55;100469.28;5034138;28;20044;-80
2021/03/04 07:13:43;;;;;;;48.53;32.77;;;;;;;6.64;55.52;100376.19;5015743;28;20116;-84
2021/03/04 07:16:15;;;;;;;52.30;32.40;;;;;;;7.38;54.94;100466.97;5014998;28;20029;-87
2021/03/04 07:18:53;;;;;;;49.27;29.57;;;;;;;7.45;54.96;100468.94;5016049;28;20041;-83
2021/03/04 07:21:19;;;;;;;53.50;33.50;;;;;;;7.56;55.33;100460.13;5018216;28;20028;-84
2021/03/04 07:23:46;;;;;;;52.93;32.13;;;;;;;7.10;54.67;100374.00;5031708;28;20033;-85
2021/03/04 07:26:13;;;;;;;47.83;32.42;;;;;;;7.67;55.12;100440.75;5026520;28;20100;-83
2021/03/04 07:28:41;;;;;;;47.00;30.70;;;;;;;7.76;54.83;100448.66;5034234;28;20033;-84
2021/03/04 07:31:08;;;;;;;47.77;30.67;;;;;;;7.50;54.86;100395.78;5030444;28;20029;-85
2021/03/04 07:33:37;;;;;;;43.03;28.97;;;;;;;7.45;54.73;100402.44;5035111;28;20053;-85
2021/03/04 07:36:08;;;;;;;47.53;30.23;;;;;;;7.58;54.99;100410.88;5032740;28;20444;-79
2021/03/04 07:38:35;;;;;;;43.90;28.02;;;;;;;7.81;54.50;100433.28;5035273;28;20470;-78
2021/03/04 07:41:05;;;;;;;46.67;27.47;;;;;;;7.87;54.66;100427.47;5035693;28;20064;-81
2021/03/04 07:44:00;;;;;;;47.40;29.70;;;;;;;7.90;55.09;100423.75;5031683;28;20032;-85
2021/03/04 07:46:52;;;;;;;49.70;29.53;;;;;;;7.97;54.91;100411.69;5037173;28;20030;-82
2021/03/04 07:49:31;;;;;;;47.83;30.92;;;;;;;7.70;54.35;100369.50;4967513;28;20104;-82
2021/03/04 07:52:18;;;;;;;54.43;33.07;;;;;;;8.06;54.69;100413.47;5022358;28;20030;-82
2021/03/04 07:54:47;;;;;;;58.97;38.30;;;;;;;8.12;54.30;100410.28;5034021;28;20044;-85
2021/03/04 07:57:14;;;;;;;57.63;38.95;;;;;;;7.75;54.40;100339.22;5048079;28;20395;-85
2021/03/04 07:59:55;;;;;;;57.00;37.70;;;;;;;8.31;54.46;100398.09;5034526;28;20056;-79
2021/03/04 08:02:26;;;;;;;52.72;35.42;;;;;;;7.95;54.27;100319.81;5033565;28;20033;-80
2021/03/04 08:04:52;;;;;;;53.05;34.63;;;;;;;8.11;53.47;100337.63;5016934;28;20041;-82
2021/03/04 08:07:26;;;;;;;48.67;30.13;;;;;;;8.55;53.32;100390.56;5030795;28;20078;-84
2021/03/04 08:10:03;;;;;;;44.20;28.85;;;;;;;8.60;53.37;100394.44;5034723;28;20502;-85
2021/03/04 08:12:28;;;;;;;44.85;26.58;;;;;;;8.25;52.91;100304.78;5020919;28;20049;-84
2021/03/04 08:14:56;;;;;;;36.75;22.58;;;;;;;8.75;52.13;100362.34;5033927;28;20071;-80
2021/03/04 08:17:22;;;;;;;37.42;23.52;;;;;;;8.56;52.07;100329.88;5033920;28;20083;-86
2021/03/04 08:19:48;;;;;;;39.92;23.80;;;;;;;9.03;52.06;100374.56;5034844;28;20029;-86
2021/03/04 08:22:17;;;;;;;36.30;21.52;;;;;;;8.74;51.93;100332.56;5034338;28;20029;-80
2021/03/04 08:24:45;;;;;;;34.80;20.80;;;;;;;8.60;51.68;100270.72;5032473;28;20025;-82
2021/03/04 08:27:10;;;;;;;31.02;19.23;;;;;;;9.16;50.97;100351.31;5025386;28;20060;-84
2021/03/04 08:29:45;;;;;;;35.65;19.15;;;;;;;8.74;50.96;100258.84;5014609;28;20081;-83
2021/03/04 08:32:12;;;;;;;29.90;17.25;;;;;;;9.43;50.98;100355.69;5030961;28;20037;-82
2021/03/04 08:34:39;;;;;;;29.55;17.35;;;;;;;9.54;50.85;100355.47;5033990;28;20029;-80
2021/03/04 08:37:06;;;;;;;34.28;20.35;;;;;;;9.16;50.68;100272.28;5029656;28;20037;-84
2021/03/04 08:39:35;;;;;;;31.05;19.88;;;;;;;9.13;50.12;100226.97;5032922;28;20095;-82
2021/03/04 08:42:08;;;;;;;34.28;22.67;;;;;;;9.96;49.97;100339.00;5031968;28;20348;-80
2021/03/04 08:44:34;;;;;;;30.65;20.55;;;;;;;9.97;49.57;100322.19;5032767;28;20355;-77
2021/03/04 08:47:00;;;;;;;34.30;20.60;;;;;;;9.97;49.28;100298.47;5033293;28;20096;-79
2021/03/04 08:49:26;;;;;;;34.75;21.60;;;;;;;10.10;49.30;100300.69;5032779;28;20164;-79
2021/03/04 08:51:52;;;;;;;27.23;18.02;;;;;;;9.67;48.55;100219.81;5024391;28;20499;-94
2021/03/04 08:54:29;;;;;;;27.27;17.73;;;;;;;10.42;48.50;100342.31;5027821;28;20352;-89
2021/03/04 08:57:05;;;;;;;23.30;15.45;;;;;;;9.98;47.49;100228.88;5034117;28;20052;-94
2021/03/04 08:59:31;;;;;;;22.05;15.00;;;;;;;9.41;47.51;100117.81;5055605;28;20033;-94
2021/03/04 09:01:59;;;;;;;25.55;15.20;;;;;;;9.41;47.45;100111.72;5033652;28;20034;-93
2021/03/04 09:04:27;;;;;;;21.25;12.80;;;;;;;9.23;46.96;100053.81;5024774;28;20041;-91
2021/03/04 09:06:53;;;;;;;28.80;15.73;;;;;;;10.39;47.08;100244.94;5034595;28;20033;-90
2021/03/04 09:09:22;;;;;;;20.52;13.88;;;;;;;10.90;46.76;100274.81;5035125;28;20049;-91
2021/03/04 09:11:48;;;;;;;26.35;16.98;;;;;;;10.44;46.48;100184.59;5034817;28;20022;-87
2021/03/04 09:14:15;;;;;;;18.25;13.43;;;;;;;11.22;46.36;100285.44;5017235;28;20056;-85
2021/03/04 09:16:44;;;;;;;17.70;12.45;;;;;;;11.33;45.36;100286.94;5023989;28;20026;-86
2021/03/04 09:19:32;;;;;;;24.35;13.07;;;;;;;11.20;45.54;100261.00;5033802;28;20030;-89
2021/03/04 09:22:02;;;;;;;17.08;11.63;;;;;;;11.39;45.57;100258.03;5033329;28;20159;-81
2021/03/04 09:24:27;;;;;;;16.90;10.98;;;;;;;11.01;45.17;100179.38;5014972;28;20076;-84
2021/03/04 09:26:54;;;;;;;18.58;11.40;;;;;;;11.46;44.93;100215.88;5036522;28;20025;-87
2021/03/04 09:29:20;;;;;;;18.15;11.55;;;;;;;11.89;44.97;100277.34;5032532;28;20033;-90
2021/03/04 09:31:53;;;;;;;18.42;11.88;;;;;;;11.97;44.02;100266.75;5027611;28;20487;-90
2021/03/04 09:34:29;;;;;;;16.63;10.43;;;;;;;11.87;43.98;100227.22;5050653;28;20056;-91
2021/03/04 09:37:22;;;;;;;14.57;10.48;;;;;;;11.83;43.65;100225.09;5036522;28;20113;-88
2021/03/04 09:39:50;;;;;;;15.50;9.90;;;;;;;12.07;43.75;100211.81;5038284;28;20363;-88
2021/03/04 09:42:18;;;;;;;15.45;10.90;;;;;;;12.35;43.91;100238.66;5027192;28;20021;-91
2021/03/04 09:44:46;;;;;;;18.17;12.10;;;;;;;12.17;43.92;100185.13;5017177;28;20034;-91
2021/03/04 09:47:31;;;;;;;20.27;10.95;;;;;;;12.58;43.89;100228.13;5018083;28;20081;-92
2021/03/04 09:49:59;;;;;;;18.55;11.38;;;;;;;12.77;43.34;100227.72;5033639;28;20025;-90
2021/03/04 09:52:32;;;;;;;17.98;10.15;;;;;;;12.92;42.80;100225.13;5045318;28;20030;-90
2021/03/04 09:55:05;;;;;;;16.73;10.95;;;;;;;12.93;43.08;100187.00;5035460;28;20032;-91
2021/03/04 09:57:30;;;;;;;16.58;11.30;;;;;;;13.20;42.31;100186.50;5026207;28;20053;-88
2021/03/04 09:59:56;;;;;;;16.67;10.32;;;;;;;12.63;42.26;100057.09;5018164;28;20117;-89
2021/03/04 10:02:26;;;;;;;13.73;9.77;;;;;;;13.70;41.88;100200.13;5033077;28;20414;-89
2021/03/04 10:04:57;;;;;;;24.98;16.58;;;;;;;13.76;41.69;100181.66;5025643;28;20056;-88
2021/03/04 10:07:28;;;;;;;17.02;11.70;;;;;;;13.87;41.41;100161.78;5039302;28;20112;-91
2021/03/04 10:09:54;;;;;;;12.23;8.97;;;;;;;14.13;41.10;100182.56;5033621;28;20033;-88
2021/03/04 10:12:20;;;;;;;12.30;9.05;;;;;;;13.76;40.97;100104.69;5035427;28;20287;-86
2021/03/04 10:14:47;;;;;;;11.30;8.00;;;;;;;13.89;40.79;100086.25;5032559;28;20440;-89
2021/03/04 10:17:14;;;;;;;12.32;9.27;;;;;;;14.69;40.44;100190.78;5033487;28;20101;-86
2021/03/04 10:19:40;;;;;;;15.25;9.00;;;;;;;14.83;40.24;100168.66;5035319;28;20383;-92
2021/03/04 10:22:06;;;;;;;12.30;8.93;;;;;;;14.54;40.23;100103.97;5033990;28;20087;-87
2021/03/04 10:24:33;;;;;;;13.30;9.70;;;;;;;14.71;40.28;100093.06;5030719;28;20050;-91
2021/03/04 10:26:59;;;;;;;14.95;9.63;;;;;;;15.31;39.72;100147.59;5031773;28;20071;-86
2021/03/04 10:29:29;;;;;;;10.63;8.25;;;;;;;15.10;39.12;100082.78;5051137;28;20099;-82
2021/03/04 10:31:56;;;;;;;11.10;8.57;;;;;;;14.73;39.00;100011.31;5036319;28;20061;-89
2021/03/04 10:34:21;;;;;;;12.50;8.23;;;;;;;15.79;38.94;100129.91;5031334;28;20032;-85
2021/03/04 10:36:47;;;;;;;13.55;9.82;;;;;;;15.43;38.99;100068.88;5033352;28;21466;-84
2021/03/04 10:39:18;;;;;;;14.90;8.52;;;;;;;15.48;38.65;100040.63;5035011;28;20025;-84
2021/03/04 10:41:44;;;;;;;13.13;9.00;;;;;;;16.14;38.17;100110.19;5033719;28;20061;-81
2021/03/04 10:44:10;;;;;;;10.45;8.48;;;;;;;16.29;38.14;100106.53;5034532;28;20032;-81
2021/03/04 10:46:36;;;;;;;13.48;9.27;;;;;;;16.42;38.27;100114.59;5034128;28;20029;-83
2021/03/04 10:49:03;;;;;;;11.63;8.75;;;;;;;16.49;37.97;100097.59;5035988;28;20037;-88
2021/03/04 10:51:29;;;;;;;11.00;8.32;;;;;;;16.03;37.94;99993.56;5036098;28;20030;-90
2021/03/04 10:53:54;;;;;;;11.63;8.52;;;;;;;16.75;37.62;100106.66;5035765;28;20440;-83
2021/03/04 10:56:20;;;;;;;12.60;8.18;;;;;;;16.80;37.42;100072.19;5035168;28;20083;-88
2021/03/04 10:58:45;;;;;;;10.18;7.88;;;;;;;15.75;37.54;99887.22;5036362;28;20025;-86
2021/03/04 11:01:11;;;;;;;11.05;8.48;;;;;;;16.53;37.16;100005.53;5034918;28;20076;-86
2021/03/04 11:03:36;;;;;;;11.02;8.32;;;;;;;17.00;37.12;100075.69;5033800;28;20471;-83
2021/03/04 11:06:01;;;;;;;11.65;8.32;;;;;;;17.25;36.74;100056.38;5028823;28;20117;-84
2021/03/04 11:08:27;;;;;;;10.55;7.72;;;;;;;16.61;36.63;99929.84;5034937;28;20038;-87
2021/03/04 11:10:52;;;;;;;13.30;9.75;;;;;;;16.89;36.61;99950.94;5030672;28;20041;-81
2021/03/04 11:13:18;;;;;;;17.02;11.95;;;;;;;17.11;36.51;99956.88;5042733;28;20042;-83
2021/03/04 11:15:43;;;;;;;16.55;12.57;;;;;;;16.91;36.49;99906.22;5034693;28;20036;-85
2021/03/04 11:18:10;;;;;;;16.33;12.18;;;;;;;17.42;36.30;99972.97;5035978;28;20064;-86
2021/03/04 11:20:35;;;;;;;12.13;8.35;;;;;;;17.42;35.88;99959.63;5033576;28;20069;-87
2021/03/04 11:23:01;;;;;;;11.57;8.82;;;;;;;17.71;36.05;99978.81;5033862;28;20424;-87
2021/03/04 11:25:26;;;;;;;11.63;8.57;;;;;;;17.42;35.73;99905.41;5034828;28;20062;-85
2021/03/04 11:27:51;;;;;;;18.90;14.23;;;;;;;17.99;35.35;99983.81;5034090;28;20030;-82
2021/03/04 11:30:17;;;;;;;24.48;17.95;;;;;;;18.26;35.17;100005.81;5035938;28;20033;-84
2021/03/04 11:32:43;;;;;;;13.43;10.18;;;;;;;18.31;35.01;99998.78;5033870;28;20029;-85
2021/03/04 11:35:09;;;;;;;11.80;8.77;;;;;;;18.11;34.72;99952.69;5033557;28;20025;-84
2021/03/04 11:37:34;;;;;;;11.15;7.80;;;;;;;18.37;34.44;99987.22;5035932;28;20113;-82
2021/03/04 11:40:00;;;;;;;11.57;7.32;;;;;;;17.82;34.51;99898.00;5034843;28;20026;-84
2021/03/04 11:42:25;;;;;;;9.55;7.07;;;;;;;18.05;34.28;99911.63;5033074;28;20044;-83
2021/03/04 11:44:51;;;;;;;11.05;6.85;;;;;;;18.37;34.15;99954.31;5053551;28;20017;-87